Time;durP1;ratioP1;P1;durP2;ratioP2;P2;SDS_P1;SDS_P2;PMS_P1;PMS_P2;Temp;Humidity;BMP_temperature;BMP_pressure;BME280_temperature;BME280_humidity;BME280_pressure;Samples;Min_cycle;Max_cycle;Signal;HPM_P1;HPM_P2
2022/12/18 00:01:20;;;;;;;;;;;-8.00;99.90;;;-9.38;100.00;98301.50;5039860;28;19924;-41
2022/12/18 00:03:46;;;;;;;;;;;-7.90;99.90;;;-9.42;100.00;98295.34;5040751;28;19920;-40
2022/12/18 00:06:13;;;;;;;;;;;-7.90;99.90;;;-9.46;100.00;98303.59;5046549;28;19932;-40
2022/12/18 00:08:40;;;;;;;;;;;-8.00;99.90;;;-9.41;100.00;98301.31;5035171;28;20025;-40
2022/12/18 00:11:07;;;;;;;;;;;-8.00;99.90;;;-9.44;100.00;98296.03;5043370;28;19950;-40
2022/12/18 00:13:33;;;;;;;;;;;-8.00;99.90;;;-9.39;100.00;98304.84;5031497;28;19928;-41
2022/12/18 00:16:07;;;;;;;;;;;-8.00;99.90;;;-9.41;100.00;98309.84;5036435;28;19924;-40
2022/12/18 00:18:33;;;;;;;;;;;-8.00;99.90;;;-9.51;100.00;98307.59;5048103;28;19931;-41
2022/12/18 00:21:00;;;;;;;;;;;-8.00;99.90;;;-9.48;100.00;98306.88;5045753;28;20378;-41
2022/12/18 00:23:27;;;;;;;;;;;-8.10;99.90;;;-9.49;100.00;98308.56;5045649;28;19959;-41
2022/12/18 00:25:52;;;;;;;;;;;-8.10;99.90;;;-9.57;100.00;98291.06;5047451;28;19921;-41
2022/12/18 00:28:18;;;;;;;;;;;-8.10;99.90;;;-9.57;100.00;98285.94;5050781;28;20507;-41
2022/12/18 00:30:43;;;;;;;;;;;-8.10;99.90;;;-9.57;100.00;98291.91;5049025;28;20411;-41
2022/12/18 00:33:09;;;;;;;;;;;-8.10;99.90;;;-9.64;100.00;98289.81;5047948;28;19917;-41
2022/12/18 00:35:35;;;;;;;;;;;-8.10;99.90;;;-9.53;100.00;98310.84;5049089;28;19932;-41
2022/12/18 00:38:00;;;;;;;;;;;-8.10;99.90;;;-9.51;100.00;98304.16;5046974;28;19982;-40
2022/12/18 00:40:26;;;;;;;;;;;-8.00;99.90;;;-9.55;100.00;98304.78;5044397;28;20323;-40
2022/12/18 00:42:57;;;;;;;;;;;-8.10;99.90;;;-9.47;100.00;98321.44;5044723;28;19931;-40
2022/12/18 00:45:28;;;;;;;;;;;-8.00;99.90;;;-9.48;100.00;98315.41;5047824;28;19921;-41
2022/12/18 00:47:54;;;;;;;;;;;-8.10;99.90;;;-9.52;100.00;98316.03;5042833;28;23035;-40
2022/12/18 00:50:20;;;;;;;;;;;-8.00;99.90;;;-9.53;100.00;98321.06;5046022;28;19927;-40
2022/12/18 00:52:46;;;;;;;;;;;-8.10;99.90;;;-9.57;100.00;98320.00;5040374;28;20441;-40
2022/12/18 00:55:12;;;;;;;;;;;-8.10;99.90;;;-9.57;100.00;98314.91;5049828;28;19920;-40
2022/12/18 00:57:37;;;;;;;;;;;-8.10;99.90;;;-9.57;100.00;98311.47;5053308;28;20024;-40
2022/12/18 01:00:05;;;;;;;;;;;-8.20;99.90;;;-9.57;100.00;98316.59;5047986;28;20343;-40
2022/12/18 01:02:31;;;;;;;;;;;-8.10;99.90;;;-9.60;100.00;98307.06;5046695;28;19920;-41
2022/12/18 01:04:57;;;;;;;;;;;-8.10;99.90;;;-9.59;100.00;98313.94;5038743;28;19931;-40
2022/12/18 01:07:22;;;;;;;;;;;-8.10;99.90;;;-9.61;100.00;98305.31;5033584;28;19967;-40
2022/12/18 01:09:48;;;;;;;;;;;-8.20;99.90;;;-9.64;100.00;98307.69;5033869;28;19917;-40
2022/12/18 01:12:13;;;;;;;;;;;-8.20;99.90;;;-9.63;100.00;98307.78;5047241;28;20033;-40
2022/12/18 01:14:39;;;;;;;;;;;-8.20;99.90;;;-9.68;100.00;98308.31;5041410;28;19991;-40
2022/12/18 01:17:05;;;;;;;;;;;-8.20;99.90;;;-9.80;100.00;98283.88;5048509;28;20291;-40
2022/12/18 01:19:30;;;;;;;;;;;-8.20;99.90;;;-9.65;100.00;98311.06;5049321;28;19917;-40
2022/12/18 01:21:56;;;;;;;;;;;-8.20;99.90;;;-9.68;100.00;98311.75;5047872;28;19990;-40
2022/12/18 01:24:22;;;;;;;;;;;-8.20;99.90;;;-9.69;100.00;98312.56;5049664;28;20356;-40
2022/12/18 01:26:47;;;;;;;;;;;-8.20;99.90;;;-9.72;100.00;98311.50;5045019;28;19929;-40
2022/12/18 01:29:13;;;;;;;;;;;-8.20;99.90;;;-9.76;100.00;98314.66;5052585;28;19932;-40
2022/12/18 01:31:38;;;;;;;;;;;-8.20;99.90;;;-9.94;100.00;98283.84;5050388;28;19917;-40
2022/12/18 01:34:05;;;;;;;;;;;-8.30;99.90;;;-9.71;100.00;98318.34;5049731;28;20007;-40
2022/12/18 01:36:33;;;;;;;;;;;-8.30;99.90;;;-9.76;100.00;98314.66;5050307;28;20449;-40
2022/12/18 01:39:04;;;;;;;;;;;-8.30;99.90;;;-9.76;100.00;98309.53;5047043;28;19920;-40
2022/12/18 01:44:50;;;;;;;;;;;-8.30;99.90;;;-9.74;100.00;98325.81;5047396;28;19970;-40
2022/12/18 01:47:20;;;;;;;;;;;-8.30;99.90;;;-9.76;100.00;98324.88;5043664;28;20288;-38
2022/12/18 01:49:46;;;;;;;;;;;-8.30;99.90;;;-9.77;100.00;98326.53;5057268;22;19985;-55
2022/12/18 01:52:11;;;;;;;;;;;-8.30;99.90;;;-9.77;100.00;98325.69;5046473;28;20325;-51
2022/12/18 01:54:37;;;;;;;;;;;-8.30;99.90;;;-9.78;100.00;98317.13;5052982;28;19921;-52
2022/12/18 01:57:02;;;;;;;;;;;-8.30;99.90;;;-9.74;100.00;98324.19;5049463;28;20067;-54
2022/12/18 01:59:31;;;;;;;;;;;-8.30;99.90;;;-9.76;100.00;98317.19;5047104;28;20015;-52
2022/12/18 02:01:56;;;;;;;;;;;-8.30;99.90;;;-9.72;100.00;98317.47;5038326;28;20397;-53
2022/12/18 02:04:27;;;;;;;;;;;-8.30;99.90;;;-9.66;100.00;98316.94;5041678;28;19931;-50
2022/12/18 02:07:26;;;;;;;;;;;-8.20;99.90;;;-9.63;100.00;98306.91;5042205;28;19929;-51
2022/12/18 02:10:24;;;;;;;;;;;-8.20;99.90;;;-9.60;100.00;98307.06;5046315;28;20368;-52
2022/12/18 02:13:14;;;;;;;;;;;-8.10;99.90;;;-9.51;100.00;98322.94;5034325;28;19921;-55
2022/12/18 02:15:59;;;;;;;;;;;-8.10;99.90;;;-9.47;100.00;98313.75;5033217;28;19921;-51
2022/12/18 02:18:32;;;;;;;;;;;-8.00;99.90;;;-9.36;100.00;98317.78;5047422;28;20660;-49
2022/12/18 02:21:40;;;;;;;;;;;-7.90;99.90;;;-9.29;100.00;98319.88;5043116;28;19921;-49
2022/12/18 02:24:30;;;;;;;;;;;-7.90;99.90;;;-9.24;100.00;98322.69;5045051;28;19947;-50
2022/12/18 02:27:00;;;;;;;;;;;-7.80;99.90;;;-9.20;100.00;98319.53;5044710;28;20146;-51
2022/12/18 02:29:33;;;;;;;;;;;-7.70;99.90;;;-9.17;100.00;98314.56;5045126;28;20410;-50
2022/12/18 02:31:59;;;;;;;;;;;-7.70;99.90;;;-9.19;100.00;98313.59;5038187;28;19978;-53
2022/12/18 02:34:30;;;;;;;;;;;-7.70;99.90;;;-9.12;100.00;98325.03;5047867;28;19921;-51
2022/12/18 02:36:57;;;;;;;;;;;-7.70;99.90;;;-9.15;100.00;98333.44;5049060;28;19916;-52
2022/12/18 02:39:25;;;;;;;;;;;-7.70;99.90;;;-9.14;100.00;98330.06;5045665;28;19928;-54
2022/12/18 02:41:51;;;;;;;;;;;-7.70;99.90;;;-9.13;100.00;98329.28;5040111;28;19913;-49
2022/12/18 02:44:17;;;;;;;;;;;-7.70;99.90;;;-9.10;100.00;98334.53;5049812;28;20426;-52
2022/12/18 02:46:45;;;;;;;;;;;-7.70;99.90;;;-9.12;100.00;98336.13;5049887;28;20172;-51
2022/12/18 02:49:23;;;;;;;;;;;-7.70;99.90;;;-9.07;100.00;98342.38;5047764;28;19920;-52
2022/12/18 02:52:07;;;;;;;;;;;-7.70;99.90;;;-9.09;100.00;98336.31;5039069;28;19920;-52
2022/12/18 02:54:55;;;;;;;;;;;-7.70;99.90;;;-9.08;100.00;98334.63;5049500;28;19978;-53
2022/12/18 02:57:21;;;;;;;;;;;-7.70;99.90;;;-9.09;100.00;98343.09;5043617;28;19924;-54
2022/12/18 03:00:13;;;;;;;;;;;-7.70;99.90;;;-9.13;100.00;98347.16;5046902;28;19927;-50
2022/12/18 03:03:13;;;;;;;;;;;-7.60;99.90;;;-9.09;100.00;98332.88;5036991;28;19924;-53
2022/12/18 03:06:02;;;;;;;;;;;-7.60;99.90;;;-9.06;100.00;98327.91;5044594;28;19928;-50
2022/12/18 03:08:29;;;;;;;;;;;-7.60;99.90;;;-9.06;100.00;98320.25;5049554;28;20392;-49
2022/12/18 03:11:02;;;;;;;;;;;-7.60;99.90;;;-9.08;100.00;98330.41;5044539;28;20011;-52
2022/12/18 03:13:32;;;;;;;;;;;-7.70;99.90;;;-9.12;100.00;98343.81;5051866;28;20210;-51
2022/12/18 03:15:59;;;;;;;;;;;-7.70;99.90;;;-9.16;100.00;98344.44;5048472;28;20364;-52
2022/12/18 03:18:30;;;;;;;;;;;-7.70;99.90;;;-9.18;100.00;98348.59;5029583;28;19921;-51
2022/12/18 03:20:58;;;;;;;;;;;-7.70;99.90;;;-9.18;100.00;98353.69;5041657;28;20346;-50
2022/12/18 03:23:26;;;;;;;;;;;-7.70;99.90;;;-9.19;100.00;98351.91;5046841;28;20007;-56
2022/12/18 03:25:55;;;;;;;;;;;-7.80;99.90;;;-9.18;100.00;98352.84;5045832;28;20357;-55
2022/12/18 03:28:22;;;;;;;;;;;-7.80;99.90;;;-9.22;100.00;98344.97;5040495;28;20035;-53
2022/12/18 03:30:50;;;;;;;;;;;-7.80;99.90;;;-9.23;100.00;98350.00;5033155;28;19924;-50
2022/12/18 03:33:25;;;;;;;;;;;-7.80;99.90;;;-9.26;100.00;98354.94;5057651;28;19924;-51
2022/12/18 03:35:51;;;;;;;;;;;-7.90;99.90;;;-9.32;100.00;98355.47;5060691;28;20233;-51
2022/12/18 03:38:17;;;;;;;;;;;-7.90;99.90;;;-9.37;100.00;98358.56;5052368;28;19994;-51
2022/12/18 03:40:42;;;;;;;;;;;-7.90;99.90;;;-9.38;100.00;98356.78;5041369;28;20487;-50
2022/12/18 03:43:18;;;;;;;;;;;-7.90;99.90;;;-9.44;100.00;98360.78;5044029;28;19924;-57
2022/12/18 03:46:02;;;;;;;;;;;-7.90;99.90;;;-9.40;100.00;98349.06;5047755;28;20017;-52
2022/12/18 03:48:41;;;;;;;;;;;-8.00;99.90;;;-9.47;100.00;98345.28;5038690;28;19976;-54
2022/12/18 03:51:50;;;;;;;;;;;-8.00;99.90;;;-9.49;100.00;98346.88;5041543;28;19928;-54
2022/12/18 03:54:16;;;;;;;;;;;-8.00;99.90;;;-9.50;100.00;98354.44;4970870;28;20668;-50
2022/12/18 03:56:46;;;;;;;;;;;-8.00;99.90;;;-9.52;100.00;98350.94;4968497;28;19953;-53
2022/12/18 03:59:12;;;;;;;;;;;-8.10;99.90;;;-9.55;100.00;98351.63;5006382;28;19932;-52
2022/12/18 04:01:41;;;;;;;;;;;-8.10;99.90;;;-9.55;100.00;98350.75;5042729;28;19943;-50
2022/12/18 04:04:08;;;;;;;;;;;-8.10;99.90;;;-9.57;100.00;98345.56;5043458;28;19928;-54
2022/12/18 04:06:34;;;;;;;;;;;-8.10;99.90;;;-9.63;100.00;98350.31;5045551;28;20019;-54
2022/12/18 04:09:00;;;;;;;;;;;-8.20;99.90;;;-9.64;100.00;98344.31;5047936;28;20015;-51
2022/12/18 04:11:26;;;;;;;;;;;-8.20;99.90;;;-9.70;100.00;98346.53;5037845;28;19917;-56
2022/12/18 04:13:57;;;;;;;;;;;-8.20;99.90;;;-9.75;100.00;98341.97;5042976;28;20347;-54
2022/12/18 04:16:24;;;;;;;;;;;-8.20;99.90;;;-9.85;100.00;98341.44;5046762;28;20086;-53
2022/12/18 04:18:50;;;;;;;;;;;-8.30;99.90;;;-9.92;100.00;98348.63;5036718;28;19947;-52
2022/12/18 04:21:15;;;;;;;;;;;-8.40;99.90;;;-9.87;100.00;98345.56;5045389;28;20408;-54
2022/12/18 04:23:41;;;;;;;;;;;-8.40;99.90;;;-9.89;100.00;98346.25;5043453;28;19975;-55
2022/12/18 04:26:06;;;;;;;;;;;-8.40;99.90;;;-10.00;100.00;98343.09;5047161;28;19924;-55
2022/12/18 04:28:32;;;;;;;;;;;-8.40;99.90;;;-9.97;100.00;98345.81;5046376;28;20050;-51
2022/12/18 04:30:58;;;;;;;;;;;-8.40;99.90;;;-10.00;100.00;98350.75;5042127;28;19925;-51
2022/12/18 04:33:23;;;;;;;;;;;-8.50;99.90;;;-10.03;100.00;98363.31;5042330;28;19920;-54
2022/12/18 04:35:49;;;;;;;;;;;-8.50;99.90;;;-10.00;100.00;98371.16;5044267;28;19947;-50
2022/12/18 04:38:15;;;;;;;;;;;-8.50;99.90;;;-9.99;100.00;98370.38;5041623;28;20395;-52
2022/12/18 04:40:41;;;;;;;;;;;-8.50;99.90;;;-9.99;100.00;98368.69;5045710;28;19934;-55
2022/12/18 04:43:06;;;;;;;;;;;-8.50;99.90;;;-9.95;100.00;98369.75;5053189;28;19920;-49
2022/12/18 04:45:32;;;;;;;;;;;-8.50;99.90;;;-10.11;100.00;98341.59;5043507;28;19921;-52
2022/12/18 04:47:59;;;;;;;;;;;-8.50;99.90;;;-9.98;100.00;98347.50;5048023;28;19955;-53
2022/12/18 04:50:25;;;;;;;;;;;-8.40;99.90;;;-9.95;100.00;98356.13;5042385;28;20015;-52
2022/12/18 04:52:50;;;;;;;;;;;-8.50;99.90;;;-10.16;100.00;98326.00;5050333;28;20394;-50
2022/12/18 04:55:16;;;;;;;;;;;-8.50;99.90;;;-10.06;100.00;98338.50;5049459;28;19923;-52
2022/12/18 04:57:41;;;;;;;;;;;-8.50;99.90;;;-10.15;100.00;98319.25;5050511;28;19932;-49
2022/12/18 05:00:08;;;;;;;;;;;-8.60;99.90;;;-10.19;100.00;98326.69;5039629;28;20541;-52
2022/12/18 05:02:33;;;;;;;;;;;-8.60;99.90;;;-10.33;100.00;98325.03;5028520;28;19959;-51
2022/12/18 05:04:59;;;;;;;;;;;-8.60;99.90;;;-10.34;100.00;98337.69;5025850;28;20384;-49
2022/12/18 05:07:24;;;;;;;;;;;-8.70;99.90;;;-10.28;100.00;98345.66;5040399;28;19928;-49
2022/12/18 05:09:50;;;;;;;;;;;-8.70;99.90;;;-10.25;100.00;98338.22;5045670;28;23262;-51
2022/12/18 05:12:16;;;;;;;;;;;-8.70;99.90;;;-10.30;100.00;98342.16;5032134;28;20298;-52
2022/12/18 05:14:41;;;;;;;;;;;-8.70;99.90;;;-10.35;100.00;98341.94;5027417;28;19963;-52
2022/12/18 05:17:07;;;;;;;;;;;-8.80;99.90;;;-10.37;100.00;98348.63;5032104;28;19924;-52
2022/12/18 05:19:33;;;;;;;;;;;-8.80;99.90;;;-10.39;100.00;98342.50;5023974;28;21608;-52
2022/12/18 05:21:58;;;;;;;;;;;-8.80;99.90;;;-10.41;100.00;98356.84;5020401;28;20020;-54
2022/12/18 05:24:24;;;;;;;;;;;-8.80;99.90;;;-10.47;100.00;98354.81;5021994;28;19924;-54
2022/12/18 05:26:49;;;;;;;;;;;-8.90;99.90;;;-10.41;100.00;98364.50;5026836;28;19977;-50
2022/12/18 05:29:15;;;;;;;;;;;-8.90;99.90;;;-10.34;100.00;98374.28;5026607;28;19966;-55
2022/12/18 05:31:41;;;;;;;;;;;-8.90;99.90;;;-10.34;100.00;98379.38;5023046;28;20294;-53
2022/12/18 05:34:06;;;;;;;;;;;-8.80;99.90;;;-10.38;100.00;98372.34;5044039;28;19988;-51
2022/12/18 05:36:32;;;;;;;;;;;-8.90;99.90;;;-10.41;100.00;98379.78;5039803;28;19920;-51
2022/12/18 05:38:58;;;;;;;;;;;-8.90;99.90;;;-10.42;100.00;98375.50;5038155;28;20334;-52
2022/12/18 05:41:23;;;;;;;;;;;-8.90;99.90;;;-10.43;100.00;98384.81;5040313;28;20095;-55
2022/12/18 05:43:49;;;;;;;;;;;-8.90;99.90;;;-10.42;100.00;98386.56;5040091;28;19926;-51
2022/12/18 05:46:17;;;;;;;;;;;-8.90;99.90;;;-10.40;100.00;98374.78;5043278;28;19963;-54
2022/12/18 05:48:44;;;;;;;;;;;-8.90;99.90;;;-10.45;100.00;98385.50;5036703;28;20025;-52
2022/12/18 05:51:12;;;;;;;;;;;-8.90;99.90;;;-10.44;100.00;98379.63;5039793;28;19933;-52
2022/12/18 05:53:38;;;;;;;;;;;-8.90;99.90;;;-10.44;100.00;98361.78;5038123;28;19920;-53
2022/12/18 05:56:07;;;;;;;;;;;-9.00;99.90;;;-10.44;100.00;98356.69;5038725;28;19917;-51
2022/12/18 05:58:33;;;;;;;;;;;-9.00;99.90;;;-10.52;100.00;98360.44;5040806;28;19960;-52
2022/12/18 06:01:10;;;;;;;;;;;-9.00;99.90;;;-10.58;100.00;98364.34;5036407;28;19928;-49
2022/12/18 06:03:36;;;;;;;;;;;-9.00;99.90;;;-10.64;100.00;98356.34;5038310;28;20217;-50
2022/12/18 06:06:02;;;;;;;;;;;-9.00;99.90;;;-10.62;100.00;98357.31;5038215;28;20377;-55
2022/12/18 06:08:28;;;;;;;;;;;-9.10;99.90;;;-10.62;100.00;98364.97;5031251;28;19964;-54
2022/12/18 06:10:54;;;;;;;;;;;-9.10;99.90;;;-10.62;100.00;98370.06;5039699;28;20077;-52
2022/12/18 06:13:20;;;;;;;;;;;-9.10;99.90;;;-10.68;100.00;98374.78;5041120;28;20119;-52
2022/12/18 06:15:45;;;;;;;;;;;-9.10;99.90;;;-10.69;100.00;98383.22;5036973;28;20002;-51
2022/12/18 06:18:11;;;;;;;;;;;-9.10;99.90;;;-10.68;100.00;98379.88;5046553;28;19925;-50
2022/12/18 06:20:39;;;;;;;;;;;-9.20;99.90;;;-10.86;100.00;98351.59;5040879;28;21394;-54
2022/12/18 06:23:05;;;;;;;;;;;-9.20;99.90;;;-10.71;100.00;98366.97;5047986;28;19927;-53
2022/12/18 06:25:31;;;;;;;;;;;-9.20;99.90;;;-10.75;100.00;98372.63;5043292;28;19917;-50
2022/12/18 06:27:57;;;;;;;;;;;-9.30;99.90;;;-10.88;100.00;98373.53;5047305;28;20644;-52
2022/12/18 06:30:22;;;;;;;;;;;-9.30;99.90;;;-10.79;100.00;98378.34;5048533;28;19925;-51
2022/12/18 06:32:49;;;;;;;;;;;-9.30;99.90;;;-10.79;100.00;98376.66;5038036;28;20023;-52
2022/12/18 06:35:15;;;;;;;;;;;-9.30;99.90;;;-10.82;100.00;98384.13;5030880;28;19990;-50
2022/12/18 06:37:40;;;;;;;;;;;-9.30;99.90;;;-10.85;100.00;98383.94;5044614;28;21896;-53
2022/12/18 06:40:06;;;;;;;;;;;-9.30;99.90;;;-10.85;100.00;98399.22;5046468;28;20045;-53
2022/12/18 06:42:32;;;;;;;;;;;-9.30;99.90;;;-10.85;100.00;98403.47;5043478;28;20063;-49
2022/12/18 06:44:58;;;;;;;;;;;-9.40;99.90;;;-10.84;100.00;98407.75;5040004;28;19925;-51
2022/12/18 06:47:23;;;;;;;;;;;-9.40;99.90;;;-10.88;100.00;98398.16;5047525;28;19928;-51
2022/12/18 06:49:49;;;;;;;;;;;-9.40;99.90;;;-10.87;100.00;98394.81;5038587;28;20028;-52
2022/12/18 06:52:14;;;;;;;;;;;-9.40;99.90;;;-10.85;100.00;98393.25;5045550;28;20564;-52
2022/12/18 06:54:40;;;;;;;;;;;-9.40;99.90;;;-10.87;100.00;98382.06;5041079;28;20019;-52
2022/12/18 06:57:06;;;;;;;;;;;-9.40;99.90;;;-10.97;100.00;98378.94;5044426;28;20289;-52
2022/12/18 06:59:31;;;;;;;;;;;-9.40;99.90;;;-10.88;100.00;98385.41;5048014;28;19985;-48
2022/12/18 07:01:57;;;;;;;;;;;-9.40;99.90;;;-10.88;100.00;98385.41;5048469;28;19924;-51
2022/12/18 07:04:29;;;;;;;;;;;-9.40;99.90;;;-10.92;100.00;98396.22;5045150;28;19925;-50
2022/12/18 07:06:55;;;;;;;;;;;-9.40;99.90;;;-11.03;100.00;98375.16;5036387;28;19925;-53
2022/12/18 07:09:21;;;;;;;;;;;-9.40;99.90;;;-10.87;100.00;98403.34;5041555;28;19916;-53
2022/12/18 07:11:46;;;;;;;;;;;-9.30;99.90;;;-10.88;100.00;98413.44;5040794;28;19972;-51
2022/12/18 07:14:12;;;;;;;;;;;-9.30;99.90;;;-10.85;100.00;98417.06;5038305;28;19942;-51
2022/12/18 07:16:37;;;;;;;;;;;-9.30;99.90;;;-10.85;100.00;98417.06;5036469;28;20711;-54
2022/12/18 07:19:03;;;;;;;;;;;-9.30;99.90;;;-10.86;100.00;98410.19;5052126;28;19931;-53
2022/12/18 07:21:29;;;;;;;;;;;-9.30;99.90;;;-10.83;100.00;98417.16;5042623;28;19924;-50
2022/12/18 07:23:54;;;;;;;;;;;-9.30;99.90;;;-10.79;100.00;98431.88;5045377;28;20007;-52
2022/12/18 07:26:20;;;;;;;;;;;-9.30;99.90;;;-10.74;100.00;98419.41;5040826;28;19936;-49
2022/12/18 07:28:47;;;;;;;;;;;-9.20;99.90;;;-10.73;100.00;98416.06;5046442;28;19978;-51
2022/12/18 07:31:15;;;;;;;;;;;-9.20;99.90;;;-10.71;100.00;98417.03;5043312;28;19968;-50
2022/12/18 07:33:41;;;;;;;;;;;-9.20;99.90;;;-10.70;100.00;98414.59;5050879;28;19985;-50
2022/12/18 07:36:07;;;;;;;;;;;-9.20;99.90;;;-10.64;100.00;98425.19;5041126;28;19924;-55
2022/12/18 07:38:34;;;;;;;;;;;-9.20;99.90;;;-10.62;100.00;98426.16;5043808;28;20005;-52
2022/12/18 07:41:04;;;;;;;;;;;-9.10;99.90;;;-10.59;100.00;98430.56;5042257;28;19921;-53
2022/12/18 07:43:30;;;;;;;;;;;-9.10;99.90;;;-10.57;100.00;98432.44;5046061;28;20070;-53
2022/12/18 07:45:56;;;;;;;;;;;-9.00;99.90;;;-10.57;100.00;98417.13;5047504;28;20474;-53
2022/12/18 07:48:21;;;;;;;;;;;-9.00;99.90;;;-10.49;100.00;98435.44;5057787;22;19933;-36
2022/12/18 07:50:47;;;;;;;;;;;-9.00;99.90;;;-10.48;100.00;98428.66;5030958;28;19932;-37
2022/12/18 07:53:14;;;;;;;;;;;-8.90;99.90;;;-10.41;100.00;98428.25;5025356;28;20195;-37
2022/12/18 07:55:42;;;;;;;;;;;-8.90;99.90;;;-10.29;100.00;98435.75;5037043;28;19925;-37
2022/12/18 07:58:08;;;;;;;;;;;-8.80;99.90;;;-10.23;100.00;98437.03;5037661;28;20009;-37
2022/12/18 08:00:34;;;;;;;;;;;-8.80;99.90;;;-10.16;100.00;98440.78;5012116;28;20330;-38
2022/12/18 08:03:00;;;;;;;;;;;-8.70;99.90;;;-10.33;100.00;98400.69;5017192;28;20139;-37
2022/12/18 08:05:26;;;;;;;;;;;-8.70;99.90;;;-10.07;100.00;98436.25;5014867;28;19929;-37
2022/12/18 08:07:52;;;;;;;;;;;-8.60;99.90;;;-9.98;100.00;98431.72;5005861;28;20373;-37
2022/12/18 08:10:18;;;;;;;;;;;-8.50;99.90;;;-9.91;100.00;98440.59;5018227;28;19931;-37
2022/12/18 08:12:44;;;;;;;;;;;-8.40;99.90;;;-9.82;100.00;98437.72;5018865;28;20200;-38
2022/12/18 08:15:09;;;;;;;;;;;-8.30;99.90;;;-9.77;100.00;98441.44;5020432;28;20339;-37
2022/12/18 08:17:35;;;;;;;;;;;-8.30;99.90;;;-9.68;100.00;98436.00;5024839;28;19925;-37
2022/12/18 08:20:00;;;;;;;;;;;-8.20;99.90;;;-9.67;100.00;98433.53;5021615;28;20027;-37
2022/12/18 08:22:26;;;;;;;;;;;-8.10;99.90;;;-9.56;100.00;98430.69;5016513;28;22941;-38
2022/12/18 08:24:52;;;;;;;;;;;-8.10;99.90;;;-9.49;100.00;98430.25;5017927;28;19929;-37
2022/12/18 08:27:17;;;;;;;;;;;-8.00;99.90;;;-9.43;100.00;98434.06;5020042;28;19931;-38
2022/12/18 08:29:43;;;;;;;;;;;-8.00;99.90;;;-9.41;100.00;98427.34;5020257;28;19927;-37
2022/12/18 08:32:08;;;;;;;;;;;-7.90;99.90;;;-9.31;100.00;98427.88;5014492;28;19931;-38
2022/12/18 08:34:34;;;;;;;;;;;-7.80;99.90;;;-9.25;100.00;98434.22;5011192;28;20062;-37
2022/12/18 08:37:00;;;;;;;;;;;-7.80;99.90;;;-9.16;100.00;98436.44;5015561;28;19916;-37
2022/12/18 08:39:25;;;;;;;;;;;-7.70;99.90;;;-9.31;100.00;98393.03;5022681;28;19925;-37
2022/12/18 08:44:38;;;;;;;;;;;-7.60;99.90;;;-8.96;100.00;98435.00;5019540;28;19928;-36
2022/12/18 08:47:07;;;;;;;;;;;-7.50;99.90;;;-8.90;100.00;98440.47;5014422;28;19928;-36
2022/12/18 08:49:33;;;;;;;;;;;-7.50;99.90;;;-8.78;100.00;98441.94;5011267;28;19920;-36
2022/12/18 08:51:59;;;;;;;;;;;-7.40;99.90;;;-8.78;100.00;98440.25;5013910;28;19933;-37
2022/12/18 08:54:25;;;;;;;;;;;-7.30;99.90;;;-8.68;100.00;98446.78;5014415;28;19932;-37
2022/12/18 08:56:51;;;;;;;;;;;-7.30;99.90;;;-8.62;100.00;98438.56;5025430;28;19994;-36
2022/12/18 08:59:17;;;;;;;;;;;-7.20;99.90;;;-8.58;100.00;98427.69;5014965;28;20651;-36
2022/12/18 09:01:43;;;;;;;;;;;-7.10;99.90;;;-8.53;100.00;98422.00;5006546;28;20063;-36
2022/12/18 09:04:09;;;;;;;;;;;-7.10;99.90;;;-8.41;100.00;98413.22;5004762;28;19921;-37
2022/12/18 09:06:35;;;;;;;;;;;-7.00;99.90;;;-8.37;100.00;98413.47;4999711;28;19968;-36
2022/12/18 09:09:01;;;;;;;;;;;-6.90;99.90;;;-8.31;100.00;98418.00;5000666;28;20011;-36
2022/12/18 09:11:28;;;;;;;;;;;-6.90;99.90;;;-8.25;100.00;98413.25;5014358;28;20510;-36
2022/12/18 09:13:54;;;;;;;;;;;-6.80;99.90;;;-8.20;100.00;98418.59;5003416;28;20416;-37
2022/12/18 09:16:20;;;;;;;;;;;-6.80;99.90;;;-8.15;100.00;98422.28;5010044;28;20061;-36
2022/12/18 09:18:47;;;;;;;;;;;-6.70;99.90;;;-8.10;100.00;98415.72;5004792;28;19925;-36
2022/12/18 09:21:18;;;;;;;;;;;-6.70;99.90;;;-8.04;100.00;98418.59;4997020;28;19923;-36
2022/12/18 09:23:43;;;;;;;;;;;-6.60;99.90;;;-7.98;100.00;98415.50;5007049;28;19979;-36
2022/12/18 09:26:09;;;;;;;;;;;-6.60;99.90;;;-7.94;100.00;98405.47;5012906;28;19924;-36
2022/12/18 09:28:35;;;;;;;;;;;-6.50;99.90;;;-7.81;100.00;98408.66;5011854;28;20107;-37
2022/12/18 09:31:05;;;;;;;;;;;-6.50;99.90;;;-7.74;100.00;98386.00;5014871;28;20467;-36
2022/12/18 09:33:31;;;;;;;;;;;-6.30;99.90;;;-7.58;100.00;98402.16;5015664;28;19940;-36
2022/12/18 09:35:56;;;;;;;;;;;-6.20;99.90;;;-7.57;100.00;98396.19;5017314;28;20385;-36
2022/12/18 09:38:23;;;;;;;;;;;-6.10;99.90;;;-7.43;100.00;98402.03;5017982;28;20071;-36
2022/12/18 09:40:52;;;;;;;;;;;-6.10;99.90;;;-7.34;100.00;98403.38;5015561;28;19920;-37
2022/12/18 09:43:45;;;;;;;;;;;-6.00;99.90;;;-7.27;100.00;98398.53;5020175;28;19963;-36
2022/12/18 09:46:17;;;;;;;;;;;-5.90;99.90;;;-7.22;100.00;98407.34;5011559;28;19921;-36
2022/12/18 09:48:46;;;;;;;;;;;-5.90;99.90;;;-7.15;100.00;98400.00;5017876;28;19932;-37
2022/12/18 09:51:17;;;;;;;;;;;-5.80;99.90;;;-7.07;100.00;98395.25;5015221;28;19936;-37
2022/12/18 09:53:47;;;;;;;;;;;-5.70;99.90;;;-7.08;100.00;98390.06;5019259;28;19918;-37
2022/12/18 09:56:16;;;;;;;;;;;-5.70;99.90;;;-6.96;100.00;98383.84;5017362;28;19925;-37
2022/12/18 09:58:47;;;;;;;;;;;-5.60;99.90;;;-6.93;100.00;98380.53;5020938;28;19925;-37
2022/12/18 10:01:16;;;;;;;;;;;-5.60;99.90;;;-6.97;100.00;98363.25;5021658;28;19933;-37
2022/12/18 10:03:41;;;;;;;;;;;-5.50;99.90;;;-6.72;100.00;98388.34;5013863;28;19925;-37
2022/12/18 10:06:16;;;;;;;;;;;-5.40;99.90;;;-6.63;100.00;98391.34;5015854;28;19987;-37
2022/12/18 10:08:54;;;;;;;;;;;-5.30;99.90;;;-6.53;100.00;98397.78;5024759;28;19925;-37
2022/12/18 10:11:41;;;;;;;;;;;-5.20;99.90;;;-6.50;100.00;98399.63;5022953;28;19928;-37
2022/12/18 10:14:23;;;;;;;;;;;-5.20;99.90;;;-6.45;100.00;98406.72;5015308;28;19921;-38
2022/12/18 10:17:13;;;;;;;;;;;-5.10;99.90;;;-6.41;100.00;98400.03;5022613;28;19940;-35
2022/12/18 10:20:00;;;;;;;;;;;-5.10;99.90;;;-6.33;100.00;98406.41;5011825;28;19928;-36
2022/12/18 10:22:43;;;;;;;;;;;-5.00;99.90;;;-6.33;100.00;98416.69;5010219;28;19951;-36
2022/12/18 10:25:41;;;;;;;;;;;-5.00;99.90;;;-6.26;100.00;98412.69;5020893;28;19932;-36
2022/12/18 10:28:12;;;;;;;;;;;-5.00;99.90;;;-6.22;100.00;98412.91;5015787;28;19947;-36
2022/12/18 10:30:39;;;;;;;;;;;-4.90;99.90;;;-6.10;100.00;98410.00;5020764;28;19917;-37
2022/12/18 10:33:05;;;;;;;;;;;-4.80;99.90;;;-6.11;100.00;98390.25;5018963;28;19921;-36
2022/12/18 10:35:31;;;;;;;;;;;-4.70;99.90;;;-6.10;100.00;98371.50;5017140;28;19918;-37
2022/12/18 10:38:16;;;;;;;;;;;-4.60;99.90;;;-5.83;100.00;98407.75;5013610;28;19960;-36
2022/12/18 10:40:56;;;;;;;;;;;-4.60;99.90;;;-5.76;100.00;98406.28;5012893;28;20024;-36
2022/12/18 10:43:30;;;;;;;;;;;-4.50;99.90;;;-5.72;100.00;98410.78;5015851;28;19925;-36
2022/12/18 10:46:00;;;;;;;;;;;-4.40;99.90;;;-5.61;100.00;98403.53;5016672;28;19932;-37
2022/12/18 10:48:26;;;;;;;;;;;-4.30;99.90;;;-5.53;100.00;98403.84;5006332;28;19929;-36
2022/12/18 10:50:52;;;;;;;;;;;-4.30;99.90;;;-5.48;100.00;98403.22;5018369;28;19964;-36
2022/12/18 10:53:23;;;;;;;;;;;-4.20;99.90;;;-5.41;100.00;98394.97;5022043;28;20333;-36
2022/12/18 10:55:50;;;;;;;;;;;-4.10;99.90;;;-5.33;100.00;98407.25;5016407;28;19917;-37
2022/12/18 10:58:15;;;;;;;;;;;-4.00;99.90;;;-5.24;100.00;98408.53;5018675;28;20337;-37
2022/12/18 11:00:41;;;;;;;;;;;-4.00;99.90;;;-5.21;100.00;98403.50;5020017;28;19925;-37
2022/12/18 11:03:35;;;;;;;;;;;-3.90;99.90;;;-5.22;100.00;98378.59;5019813;28;19928;-37
2022/12/18 11:06:16;;;;;;;;;;;-3.80;99.90;;;-4.96;100.00;98403.63;5019155;28;20254;-37
2022/12/18 11:08:43;;;;;;;;;;;-3.70;99.90;;;-4.84;100.00;98404.13;5024524;28;19924;-37
2022/12/18 11:11:20;;;;;;;;;;;-3.60;99.90;;;-4.75;100.00;98398.47;5026363;28;19928;-37
2022/12/18 11:14:15;;;;;;;;;;;-3.50;99.90;;;-4.66;100.00;98391.09;5018045;28;19967;-37
2022/12/18 11:16:46;;;;;;;;;;;-3.40;99.90;;;-4.58;100.00;98383.66;5021972;28;19917;-37
2022/12/18 11:19:32;;;;;;;;;;;-3.40;99.90;;;-4.50;100.00;98375.41;5019816;28;19963;-37
2022/12/18 11:21:57;;;;;;;;;;;-3.30;99.90;;;-4.61;100.00;98350.97;5015806;28;19931;-37